Time;durP1;ratioP1;P1;durP2;ratioP2;P2;SDS_P1;SDS_P2;PMS_P1;PMS_P2;Temp;Humidity;BMP_temperature;BMP_pressure;BME280_temperature;BME280_humidity;BME280_pressure;Samples;Min_cycle;Max_cycle;Signal;HPM_P1;HPM_P2
2022/12/25 00:00:38;;;;;;;91.47;24.35;;;5.10;99.90;;;;;;5022430;28;20036;-66
2022/12/25 00:03:04;;;;;;;87.13;22.60;;;5.10;99.90;;;;;;5020099;28;20480;-66
2022/12/25 00:05:30;;;;;;;98.25;23.73;;;5.10;99.90;;;;;;5016551;28;20041;-66
2022/12/25 00:07:55;;;;;;;84.90;21.85;;;5.20;99.90;;;;;;5020507;28;20033;-66
2022/12/25 00:10:21;;;;;;;107.18;24.05;;;5.20;99.90;;;;;;5021314;28;20029;-66
2022/12/25 00:12:47;;;;;;;125.80;28.52;;;5.20;99.90;;;;;;5022258;28;20256;-66
2022/12/25 00:15:13;;;;;;;111.07;25.23;;;5.30;99.90;;;;;;5016792;28;20034;-66
2022/12/25 00:17:38;;;;;;;138.23;28.65;;;5.30;99.90;;;;;;5017294;28;20049;-66
2022/12/25 00:20:05;;;;;;;102.95;24.50;;;5.40;99.90;;;;;;5022853;28;20137;-66
2022/12/25 00:22:30;;;;;;;128.60;26.77;;;5.30;99.90;;;;;;5016408;28;20057;-66
2022/12/25 00:24:56;;;;;;;94.50;22.75;;;5.30;99.90;;;;;;5023181;28;20560;-66
2022/12/25 00:27:22;;;;;;;92.25;23.80;;;5.30;99.90;;;;;;5020250;28;20149;-66
2022/12/25 00:29:48;;;;;;;76.78;22.13;;;5.30;99.90;;;;;;5021232;28;20059;-66
2022/12/25 00:32:13;;;;;;;76.72;22.98;;;5.30;99.90;;;;;;5017105;28;20045;-66
2022/12/25 00:34:39;;;;;;;71.57;20.42;;;5.30;99.90;;;;;;5018124;28;20045;-66
2022/12/25 00:37:05;;;;;;;137.75;25.98;;;5.30;99.90;;;;;;5017206;28;20059;-66
2022/12/25 00:39:30;;;;;;;93.03;24.30;;;5.30;99.90;;;;;;5023142;28;20498;-66
2022/12/25 00:44:40;;;;;;;97.80;23.63;;;5.30;99.90;;;;;;5021377;28;20076;-66
2022/12/25 00:47:06;;;;;;;88.25;23.65;;;5.40;99.90;;;;;;5017342;28;20072;-66
2022/12/25 00:49:32;;;;;;;135.95;27.98;;;5.30;99.90;;;;;;5016977;28;20129;-66
2022/12/25 00:51:57;;;;;;;115.47;27.15;;;5.40;99.90;;;;;;5019097;28;20456;-66
2022/12/25 00:54:23;;;;;;;91.65;23.33;;;5.50;99.90;;;;;;5014806;28;20472;-66
2022/12/25 00:56:49;;;;;;;90.65;24.67;;;5.50;99.90;;;;;;5020250;28;20129;-66
2022/12/25 00:59:14;;;;;;;120.90;27.73;;;5.60;99.90;;;;;;5019693;28;20046;-66
2022/12/25 01:01:40;;;;;;;132.23;28.52;;;5.60;99.90;;;;;;5016676;28;20060;-66
2022/12/25 01:04:07;;;;;;;137.85;28.67;;;5.60;99.90;;;;;;5020309;28;20041;-66
2022/12/25 01:06:33;;;;;;;144.10;30.73;;;5.70;99.90;;;;;;5020052;28;20112;-66
2022/12/25 01:11:43;;;;;;;140.10;28.50;;;5.70;99.90;;;;;;5012821;28;20080;-66
2022/12/25 01:14:10;;;;;;;124.82;26.42;;;5.70;99.90;;;;;;5021912;28;20322;-66
2022/12/25 01:16:36;;;;;;;123.45;27.58;;;5.70;99.90;;;;;;5019064;28;20095;-66
2022/12/25 01:19:02;;;;;;;109.80;25.42;;;5.70;99.90;;;;;;5019540;28;20042;-66
2022/12/25 01:21:28;;;;;;;101.97;26.92;;;5.60;99.90;;;;;;5018654;28;20430;-66
2022/12/25 01:23:54;;;;;;;95.63;23.65;;;5.70;99.90;;;;;;5016261;28;20068;-66
2022/12/25 01:26:22;;;;;;;95.57;22.15;;;5.70;99.90;;;;;;5019197;28;20033;-66
2022/12/25 01:28:48;;;;;;;103.90;24.23;;;5.70;99.90;;;;;;5017011;28;20049;-66
2022/12/25 01:31:16;;;;;;;87.97;25.13;;;5.70;99.90;;;;;;5021698;28;20380;-66
2022/12/25 01:33:43;;;;;;;108.35;26.27;;;5.80;99.90;;;;;;5019409;28;20034;-66
2022/12/25 01:36:24;;;;;;;117.32;24.30;;;5.80;99.90;;;;;;5021286;28;20080;-66
2022/12/25 01:38:51;;;;;;;102.93;23.90;;;5.80;99.90;;;;;;5018405;28;20076;-66
2022/12/25 01:41:21;;;;;;;115.05;26.42;;;5.90;99.90;;;;;;5014061;28;20049;-66
2022/12/25 01:44:27;;;;;;;114.82;25.02;;;5.90;99.90;;;;;;5033099;28;20038;-66
2022/12/25 01:46:53;;;;;;;96.63;23.85;;;5.90;99.90;;;;;;5018744;28;20112;-66
2022/12/25 01:49:23;;;;;;;103.97;24.80;;;6.00;99.90;;;;;;5019124;28;20130;-66
2022/12/25 01:52:09;;;;;;;128.63;27.02;;;6.00;99.90;;;;;;5018406;28;20045;-66
2022/12/25 01:54:49;;;;;;;74.05;21.75;;;6.10;99.90;;;;;;5019517;28;20116;-66
2022/12/25 01:57:25;;;;;;;95.10;22.95;;;6.10;99.90;;;;;;5015236;28;20413;-66
2022/12/25 01:59:51;;;;;;;62.45;19.08;;;6.20;99.90;;;;;;5018172;28;20048;-66
2022/12/25 02:02:17;;;;;;;80.32;20.70;;;6.20;99.90;;;;;;5011910;28;20042;-66
2022/12/25 02:05:28;;;;;;;81.90;20.80;;;6.20;99.90;;;;;;5017472;28;20378;-66
2022/12/25 02:07:56;;;;;;;87.18;21.85;;;6.30;99.90;;;;;;4970849;28;20046;-66
2022/12/25 02:10:22;;;;;;;82.60;21.55;;;6.30;99.90;;;;;;5013284;28;20057;-66
2022/12/25 02:12:48;;;;;;;70.20;19.55;;;6.40;99.90;;;;;;5016956;28;20033;-66
2022/12/25 02:15:18;;;;;;;78.32;20.95;;;6.30;99.90;;;;;;5019845;28;20107;-66
2022/12/25 02:17:59;;;;;;;97.20;22.48;;;6.40;99.90;;;;;;5016126;28;20128;-66
2022/12/25 02:20:27;;;;;;;69.20;20.15;;;6.40;99.90;;;;;;5017414;28;20053;-66
2022/12/25 02:23:24;;;;;;;87.68;23.13;;;6.50;99.90;;;;;;5014547;28;20048;-66
2022/12/25 02:26:08;;;;;;;92.47;22.58;;;6.50;99.90;;;;;;5016788;28;20531;-66
2022/12/25 02:28:39;;;;;;;75.25;19.83;;;6.60;99.90;;;;;;5015945;28;20172;-66
2022/12/25 02:31:40;;;;;;;95.38;22.73;;;6.60;99.90;;;;;;5019394;28;20045;-66
2022/12/25 02:34:29;;;;;;;108.68;22.83;;;6.60;99.90;;;;;;5020278;28;20405;-66
2022/12/25 02:36:57;;;;;;;92.82;22.80;;;6.60;99.90;;;;;;5017956;28;20447;-66
2022/12/25 03:08:29;;;;;;;73.50;18.77;;;7.00;99.90;;;;;;5019001;28;20112;-66
2022/12/25 03:13:52;;;;;;;59.53;18.60;;;7.00;99.90;;;;;;5018686;28;20508;-66
2022/12/25 03:26:53;;;;;;;88.22;19.42;;;7.20;99.90;;;;;;5020544;28;20123;-66
2022/12/25 03:27:19;;;;;;;69.45;18.10;;;7.20;99.90;;;;;;5021841;28;20456;-67
2022/12/25 03:32:43;;;;;;;62.40;18.37;;;7.20;99.90;;;;;;5025630;28;20125;-67
2022/12/25 03:35:24;;;;;;;51.67;16.52;;;7.20;99.90;;;;;;5020695;28;20297;-66
2022/12/25 04:37:14;;;;;;;73.20;22.25;;;7.70;99.90;;;;;;5033281;28;20119;-66
2022/12/25 04:39:40;;;;;;;71.22;23.98;;;7.70;99.90;;;;;;5015714;28;20481;-67
2022/12/25 04:42:06;;;;;;;91.15;24.77;;;7.80;99.90;;;;;;5022204;28;20046;-66
2022/12/25 04:44:31;;;;;;;69.90;23.33;;;7.80;99.90;;;;;;5019373;28;20034;-66
2022/12/25 04:46:57;;;;;;;90.40;24.85;;;7.80;99.90;;;;;;5016778;28;20555;-67
2022/12/25 04:49:23;;;;;;;75.05;25.90;;;7.80;99.90;;;;;;5017306;28;20042;-66
2022/12/25 04:51:48;;;;;;;100.68;27.27;;;7.80;99.90;;;;;;5018474;28;20076;-66
2022/12/25 04:54:14;;;;;;;78.30;24.40;;;7.90;99.90;;;;;;5017796;28;20068;-66
2022/12/25 04:56:40;;;;;;;94.53;27.50;;;7.80;99.90;;;;;;5021300;28;20042;-67
2022/12/25 04:59:06;;;;;;;106.85;28.52;;;7.90;99.90;;;;;;5015709;28;20411;-67
2022/12/25 05:01:32;;;;;;;92.78;26.75;;;7.90;99.90;;;;;;5018718;28;20121;-66
2022/12/25 05:03:57;;;;;;;111.05;28.00;;;7.90;99.90;;;;;;5020943;28;20391;-66
2022/12/25 05:06:23;;;;;;;111.55;28.45;;;7.90;99.90;;;;;;5018299;28;20089;-66
2022/12/25 05:08:49;;;;;;;87.90;27.30;;;7.90;99.90;;;;;;5017447;28;20132;-66
2022/12/25 05:11:15;;;;;;;95.90;28.75;;;7.90;99.90;;;;;;5019781;28;20041;-66
2022/12/25 05:13:41;;;;;;;101.00;28.83;;;7.90;99.90;;;;;;5020072;28;20180;-66
2022/12/25 05:16:10;;;;;;;117.72;30.05;;;7.90;99.90;;;;;;5019123;28;20058;-67
2022/12/25 05:18:36;;;;;;;102.10;28.30;;;7.90;99.90;;;;;;5019465;28;20053;-66
2022/12/25 05:21:03;;;;;;;81.35;26.45;;;8.00;99.90;;;;;;5023387;28;20053;-67
2022/12/25 05:23:29;;;;;;;101.78;29.63;;;8.00;99.90;;;;;;5022174;28;20400;-67
2022/12/25 05:25:55;;;;;;;128.15;32.72;;;8.00;99.90;;;;;;5016555;28;20565;-66
2022/12/25 05:28:21;;;;;;;91.85;28.40;;;8.00;99.90;;;;;;5017254;28;20120;-67
2022/12/25 05:30:46;;;;;;;109.72;29.88;;;8.10;99.90;;;;;;5019957;28;20045;-67
2022/12/25 05:33:13;;;;;;;86.80;27.25;;;8.00;99.90;;;;;;5020130;28;20049;-67
2022/12/25 05:35:39;;;;;;;113.53;30.70;;;8.10;99.90;;;;;;5019304;28;20122;-66
2022/12/25 05:38:06;;;;;;;86.75;27.60;;;8.10;99.90;;;;;;5018616;28;20366;-67
2022/12/25 05:40:33;;;;;;;103.40;28.88;;;8.10;99.90;;;;;;5003899;28;20045;-66
2022/12/25 05:42:58;;;;;;;126.20;31.92;;;8.10;99.90;;;;;;5018962;28;20057;-67
2022/12/25 05:45:24;;;;;;;90.15;28.75;;;8.20;99.90;;;;;;5018871;28;20134;-66
2022/12/25 05:47:51;;;;;;;84.85;28.70;;;8.20;99.90;;;;;;5017038;28;20413;-67
2022/12/25 05:50:16;;;;;;;102.30;30.85;;;8.10;99.90;;;;;;5016288;28;20053;-66
2022/12/25 05:52:42;;;;;;;85.93;30.52;;;8.20;99.90;;;;;;5018637;28;20033;-67
2022/12/25 05:55:08;;;;;;;76.35;27.00;;;8.20;99.90;;;;;;5017242;28;20033;-66
2022/12/25 05:57:34;;;;;;;92.70;29.58;;;8.20;99.90;;;;;;5015769;28;20667;-66
2022/12/25 05:59:59;;;;;;;119.10;32.50;;;8.30;99.90;;;;;;5018029;28;20045;-66
2022/12/25 06:02:25;;;;;;;97.22;31.40;;;8.30;99.90;;;;;;5019392;28;20135;-67
2022/12/25 06:04:51;;;;;;;141.02;35.72;;;8.30;99.90;;;;;;5018625;28;20128;-67
2022/12/25 06:07:16;;;;;;;153.55;36.13;;;8.30;99.90;;;;;;5015831;28;20072;-66
2022/12/25 06:09:42;;;;;;;127.22;33.78;;;8.30;99.90;;;;;;5016939;28;20414;-67
2022/12/25 06:12:08;;;;;;;93.38;31.10;;;8.30;99.90;;;;;;5021276;28;20057;-66
2022/12/25 06:14:34;;;;;;;69.20;28.65;;;8.30;99.90;;;;;;5020560;28;20133;-66
2022/12/25 06:17:00;;;;;;;120.90;33.97;;;8.30;99.90;;;;;;5017647;28;20150;-66
2022/12/25 06:19:26;;;;;;;150.07;36.70;;;8.40;99.90;;;;;;5016173;28;20123;-67
2022/12/25 06:21:53;;;;;;;83.97;28.95;;;8.40;99.90;;;;;;5018257;28;20045;-66
2022/12/25 06:24:20;;;;;;;75.03;29.02;;;8.40;99.90;;;;;;5021286;28;20136;-67
2022/12/25 06:26:45;;;;;;;112.07;33.40;;;8.40;99.90;;;;;;5020057;28;20123;-67
2022/12/25 06:29:11;;;;;;;78.13;28.38;;;8.40;99.90;;;;;;5020534;28;20042;-67
2022/12/25 06:31:37;;;;;;;86.03;29.98;;;8.40;99.90;;;;;;5033711;28;20053;-67
2022/12/25 06:34:03;;;;;;;76.97;28.25;;;8.50;99.90;;;;;;5020827;28;20053;-67
2022/12/25 06:36:29;;;;;;;99.63;29.88;;;8.50;99.90;;;;;;5015650;28;20037;-67
2022/12/25 06:38:55;;;;;;;82.38;28.40;;;8.40;99.90;;;;;;5020868;28;20045;-67
2022/12/25 06:41:27;;;;;;;96.13;31.77;;;8.50;99.90;;;;;;5021255;28;20068;-66
2022/12/25 06:43:57;;;;;;;95.57;31.27;;;8.40;99.90;;;;;;5022547;28;20049;-66
2022/12/25 06:46:25;;;;;;;57.97;26.25;;;8.40;99.90;;;;;;5022464;28;20037;-67
2022/12/25 06:48:51;;;;;;;59.40;24.50;;;8.50;99.90;;;;;;5023964;28;20213;-67
2022/12/25 06:51:20;;;;;;;57.03;23.70;;;8.40;99.90;;;;;;5022405;28;20525;-66
2022/12/25 06:53:47;;;;;;;69.55;26.35;;;8.50;99.90;;;;;;5021598;28;20072;-67
2022/12/25 06:56:15;;;;;;;45.67;22.08;;;8.50;99.90;;;;;;5017353;28;20465;-66
2022/12/25 06:58:50;;;;;;;54.47;23.30;;;8.40;99.90;;;;;;5019736;28;20103;-66
2022/12/25 07:01:20;;;;;;;51.38;22.50;;;8.50;99.90;;;;;;5009605;28;20079;-66
2022/12/25 07:03:48;;;;;;;42.45;21.52;;;8.40;99.90;;;;;;5014400;28;20073;-67
2022/12/25 07:06:14;;;;;;;69.88;26.48;;;8.40;99.90;;;;;;5018221;28;20037;-66
2022/12/25 07:08:40;;;;;;;55.65;24.05;;;8.40;99.90;;;;;;5021901;28;20523;-66
2022/12/25 07:11:07;;;;;;;54.38;22.90;;;8.50;99.90;;;;;;5024962;28;20041;-67
2022/12/25 07:13:33;;;;;;;47.17;22.48;;;8.50;99.90;;;;;;5008898;28;20128;-67
2022/12/25 07:16:01;;;;;;;50.22;21.77;;;8.50;99.90;;;;;;5027827;28;20180;-66
2022/12/25 07:18:28;;;;;;;59.75;22.52;;;8.50;99.90;;;;;;5024362;28;20078;-66
2022/12/25 07:20:54;;;;;;;59.60;22.65;;;8.40;99.90;;;;;;5022898;28;20550;-66
2022/12/25 07:23:21;;;;;;;49.72;20.88;;;8.50;99.90;;;;;;5027111;28;20486;-66
2022/12/25 07:25:57;;;;;;;43.65;19.75;;;8.40;99.90;;;;;;5021164;28;20045;-66
2022/12/25 07:28:23;;;;;;;53.47;21.63;;;8.50;99.90;;;;;;5024575;28;20125;-67
2022/12/25 07:30:49;;;;;;;52.75;22.23;;;8.40;99.90;;;;;;5025120;28;20448;-66
2022/12/25 07:33:16;;;;;;;57.03;22.83;;;8.40;99.90;;;;;;5023518;28;20041;-67
2022/12/25 07:35:42;;;;;;;47.35;20.30;;;8.50;99.90;;;;;;5022019;28;20056;-66
2022/12/25 07:38:08;;;;;;;52.70;20.88;;;8.40;99.90;;;;;;5021222;28;20049;-67
2022/12/25 07:40:34;;;;;;;39.15;17.65;;;8.40;99.90;;;;;;5025883;28;20042;-66
2022/12/25 07:43:00;;;;;;;47.22;19.55;;;8.40;99.90;;;;;;5021471;28;20513;-67
2022/12/25 07:45:26;;;;;;;41.92;16.52;;;8.50;99.90;;;;;;5023746;28;20056;-66
2022/12/25 07:47:52;;;;;;;31.83;16.70;;;8.50;99.90;;;;;;5027343;28;20041;-67
2022/12/25 07:50:18;;;;;;;28.10;14.63;;;8.40;99.90;;;;;;5024233;28;20092;-67
2022/12/25 07:52:45;;;;;;;45.35;17.85;;;8.40;99.90;;;;;;5023124;28;20073;-67
2022/12/25 07:55:12;;;;;;;38.40;16.02;;;8.50;99.90;;;;;;5025854;28;20474;-66
2022/12/25 07:57:38;;;;;;;40.22;16.65;;;8.40;99.90;;;;;;5026829;28;20041;-67
2022/12/25 08:00:05;;;;;;;39.40;15.38;;;8.40;99.90;;;;;;5025038;28;20064;-67
2022/12/25 08:02:31;;;;;;;39.00;14.95;;;8.50;99.90;;;;;;5022783;28;20057;-67
2022/12/25 08:04:57;;;;;;;31.48;14.32;;;8.50;99.90;;;;;;5020677;28;20030;-67
2022/12/25 08:07:23;;;;;;;41.33;15.45;;;8.50;99.90;;;;;;5026543;28;20044;-66
2022/12/25 08:09:49;;;;;;;32.58;13.05;;;8.40;99.90;;;;;;5024933;28;20037;-67
2022/12/25 08:12:15;;;;;;;41.08;15.82;;;8.40;99.90;;;;;;5021656;28;20045;-66
2022/12/25 08:14:41;;;;;;;36.47;14.75;;;8.40;99.90;;;;;;5020637;28;20037;-67
2022/12/25 08:17:07;;;;;;;31.20;12.85;;;8.50;99.90;;;;;;5020164;28;20057;-66
2022/12/25 08:19:33;;;;;;;32.92;14.45;;;8.50;99.90;;;;;;5020729;28;20557;-66
2022/12/25 08:21:58;;;;;;;29.85;14.30;;;8.50;99.90;;;;;;5020316;28;20476;-67
2022/12/25 08:24:24;;;;;;;28.45;14.40;;;8.50;99.90;;;;;;5016365;28;20072;-67
2022/12/25 08:26:50;;;;;;;27.35;13.82;;;8.50;99.90;;;;;;5016140;28;20389;-67
2022/12/25 08:29:16;;;;;;;34.80;13.18;;;8.50;99.90;;;;;;5018541;28;20037;-66
2022/12/25 08:31:42;;;;;;;26.10;11.63;;;8.40;99.90;;;;;;5019242;28;20077;-67
2022/12/25 08:34:09;;;;;;;33.55;13.27;;;8.40;99.90;;;;;;5019309;28;20423;-66
2022/12/25 08:36:36;;;;;;;28.98;12.18;;;8.40;99.90;;;;;;5018829;28;20080;-66
2022/12/25 08:39:03;;;;;;;29.08;12.50;;;8.40;99.90;;;;;;5020370;28;20101;-67
2022/12/25 08:41:30;;;;;;;23.15;11.50;;;8.40;99.90;;;;;;5019493;28;20057;-66
2022/12/25 08:43:55;;;;;;;25.15;11.02;;;8.40;99.90;;;;;;5019168;28;20090;-66
2022/12/25 08:46:21;;;;;;;23.35;10.63;;;8.50;99.90;;;;;;5014292;28;20064;-66
2022/12/25 08:48:48;;;;;;;32.30;12.88;;;8.50;99.90;;;;;;5015279;28;20052;-66
2022/12/25 08:51:18;;;;;;;27.55;11.88;;;8.40;99.90;;;;;;5012739;28;20041;-66
2022/12/25 08:53:46;;;;;;;26.40;11.27;;;8.40;99.90;;;;;;5014391;28;20033;-67
2022/12/25 08:56:13;;;;;;;27.27;11.82;;;8.40;99.90;;;;;;5019807;28;20052;-66
2022/12/25 08:58:39;;;;;;;28.23;12.13;;;8.40;99.90;;;;;;5015046;28;20037;-67
2022/12/25 09:01:06;;;;;;;25.65;11.15;;;8.40;99.90;;;;;;5014502;28;20033;-66
2022/12/25 09:03:33;;;;;;;23.77;11.05;;;8.40;99.90;;;;;;5021756;28;20041;-67
2022/12/25 09:06:05;;;;;;;27.98;11.13;;;8.40;99.90;;;;;;5022605;28;20060;-67
2022/12/25 09:08:31;;;;;;;22.85;11.00;;;8.40;99.90;;;;;;5019113;28;20025;-66
2022/12/25 09:11:04;;;;;;;20.08;10.32;;;8.40;99.90;;;;;;5020830;28;20077;-67
2022/12/25 09:13:30;;;;;;;21.42;10.27;;;8.40;99.90;;;;;;5014542;28;20038;-67
2022/12/25 09:15:55;;;;;;;21.10;11.10;;;8.40;99.90;;;;;;5013811;28;20032;-67
2022/12/25 09:18:21;;;;;;;22.60;11.25;;;8.40;99.90;;;;;;5013729;28;20060;-67
2022/12/25 09:20:56;;;;;;;21.67;10.18;;;8.40;99.90;;;;;;5019551;28;20038;-67
2022/12/25 09:23:25;;;;;;;17.45;9.80;;;8.40;99.90;;;;;;5014378;28;20692;-67
2022/12/25 09:25:51;;;;;;;27.92;11.20;;;8.50;99.90;;;;;;5017245;28;20168;-67
2022/12/25 09:28:16;;;;;;;25.35;10.65;;;8.50;99.90;;;;;;5018030;28;20457;-66
2022/12/25 09:30:42;;;;;;;22.13;9.93;;;8.40;99.90;;;;;;5014768;28;20037;-66
2022/12/25 09:33:08;;;;;;;21.23;9.63;;;8.50;99.90;;;;;;5013936;28;20040;-66
2022/12/25 09:35:34;;;;;;;26.92;11.90;;;8.50;99.90;;;;;;5021899;28;20037;-66
2022/12/25 09:38:00;;;;;;;26.85;9.88;;;8.50;99.90;;;;;;5015497;28;20041;-66
2022/12/25 09:40:29;;;;;;;22.15;10.05;;;8.60;99.90;;;;;;5017940;28;20096;-66
2022/12/25 09:42:56;;;;;;;24.55;9.48;;;8.50;99.90;;;;;;5019339;28;20041;-66
2022/12/25 09:45:31;;;;;;;20.02;9.88;;;8.60;99.90;;;;;;5015681;28;20041;-66
2022/12/25 09:47:57;;;;;;;21.45;10.40;;;8.60;99.90;;;;;;5018488;28;20041;-66
2022/12/25 09:50:49;;;;;;;24.35;11.75;;;8.60;99.90;;;;;;5017541;28;20728;-67
2022/12/25 09:53:20;;;;;;;26.98;13.25;;;8.60;99.90;;;;;;5019518;28;20457;-67
2022/12/25 09:56:08;;;;;;;22.73;10.15;;;8.70;99.90;;;;;;5014635;28;20077;-67
2022/12/25 09:58:34;;;;;;;22.45;11.40;;;8.60;99.90;;;;;;5017004;28;20088;-66
2022/12/25 10:01:22;;;;;;;20.63;10.05;;;8.70;99.90;;;;;;5017670;28;20030;-66
2022/12/25 10:03:54;;;;;;;28.63;10.30;;;8.70;99.90;;;;;;5017682;28;20148;-67
2022/12/25 10:06:23;;;;;;;18.95;9.77;;;8.70;99.90;;;;;;5018076;28;20041;-66
2022/12/25 10:09:09;;;;;;;20.27;9.55;;;8.70;99.90;;;;;;5019852;28;20133;-66
2022/12/25 10:11:53;;;;;;;20.52;8.85;;;8.70;99.90;;;;;;5015537;28;20104;-67
2022/12/25 10:14:53;;;;;;;16.25;9.00;;;8.70;99.90;;;;;;5010926;28;20053;-66
2022/12/25 10:17:43;;;;;;;19.50;8.32;;;8.80;99.90;;;;;;5016874;28;20093;-67
2022/12/25 10:20:25;;;;;;;24.33;9.02;;;8.80;99.90;;;;;;5018379;28;20050;-66
2022/12/25 10:22:56;;;;;;;18.23;8.60;;;8.80;99.90;;;;;;5017981;28;20073;-66
2022/12/25 10:25:23;;;;;;;18.80;8.88;;;8.80;99.90;;;;;;5011518;28;20168;-67
2022/12/25 10:28:10;;;;;;;19.23;8.40;;;8.80;99.90;;;;;;5018788;28;20065;-67
2022/12/25 10:30:38;;;;;;;16.25;8.48;;;8.90;99.90;;;;;;5014455;28;20064;-66
2022/12/25 10:33:04;;;;;;;14.63;7.65;;;8.90;99.90;;;;;;5022316;28;20068;-66
2022/12/25 10:35:31;;;;;;;13.65;7.85;;;8.90;99.90;;;;;;5017342;28;20338;-66
2022/12/25 10:38:18;;;;;;;16.67;7.78;;;9.00;99.90;;;;;;5021191;28;20041;-67
2022/12/25 10:41:27;;;;;;;17.52;7.80;;;8.90;99.90;;;;;;5015935;28;20116;-66
2022/12/25 10:43:54;;;;;;;18.45;7.55;;;8.90;99.90;;;;;;5015407;28;20049;-66
2022/12/25 10:46:22;;;;;;;24.35;9.38;;;8.90;99.90;;;;;;5016036;28;20445;-66
2022/12/25 10:49:02;;;;;;;15.35;8.98;;;9.00;99.90;;;;;;5019056;28;20041;-66
2022/12/25 10:51:36;;;;;;;15.00;9.07;;;9.00;99.90;;;;;;5015068;28;20037;-66
2022/12/25 10:54:18;;;;;;;15.73;8.30;;;9.00;99.90;;;;;;5017456;28;20042;-66
2022/12/25 10:56:55;;;;;;;15.95;8.00;;;9.00;99.90;;;;;;5017801;28;20083;-67
2022/12/25 10:59:22;;;;;;;18.27;8.10;;;9.10;99.90;;;;;;5021510;28;20037;-66
2022/12/25 11:01:48;;;;;;;15.10;8.05;;;9.10;99.90;;;;;;5016774;28;20081;-66
2022/12/25 11:04:40;;;;;;;15.48;7.72;;;9.20;99.90;;;;;;5021112;28;20046;-67
2022/12/25 11:07:13;;;;;;;17.35;7.90;;;9.20;99.90;;;;;;5017550;28;20054;-66
2022/12/25 11:09:39;;;;;;;15.60;7.90;;;9.20;99.90;;;;;;5015348;28;20102;-67
2022/12/25 11:12:05;;;;;;;12.93;7.57;;;9.10;99.90;;;;;;5018309;28;20045;-67
2022/12/25 11:14:31;;;;;;;17.33;8.27;;;9.20;99.90;;;;;;5012856;28;20046;-67
2022/12/25 11:17:07;;;;;;;14.93;8.35;;;9.20;99.90;;;;;;5018310;28;20068;-67
2022/12/25 11:19:33;;;;;;;14.88;7.63;;;9.20;99.90;;;;;;5011522;28;20068;-66
2022/12/25 11:22:01;;;;;;;13.43;6.57;;;9.20;99.90;;;;;;5021203;28;20043;-67
2022/12/25 11:24:32;;;;;;;14.13;7.20;;;9.20;99.90;;;;;;5019853;28;20057;-66
2022/12/25 11:27:05;;;;;;;17.17;7.57;;;9.30;99.90;;;;;;5016979;28;20029;-67
2022/12/25 11:29:47;;;;;;;15.98;6.93;;;9.30;99.90;;;;;;5016098;28;20421;-67
2022/12/25 11:32:36;;;;;;;17.40;7.78;;;9.30;99.90;;;;;;5016938;28;20046;-66
2022/12/25 11:35:02;;;;;;;13.27;7.72;;;9.30;99.90;;;;;;5017479;28;20057;-66
2022/12/25 11:37:40;;;;;;;15.00;7.30;;;9.30;99.90;;;;;;5017326;28;20037;-67
2022/12/25 11:40:12;;;;;;;15.38;7.28;;;9.50;99.90;;;;;;5022565;28;20129;-67
2022/12/25 11:42:42;;;;;;;13.48;7.47;;;9.40;99.90;;;;;;5021218;28;20385;-67
2022/12/25 11:45:14;;;;;;;14.50;7.47;;;9.50;99.90;;;;;;5013880;28;20045;-67
2022/12/25 11:47:54;;;;;;;11.90;6.55;;;9.50;99.90;;;;;;5021303;28;20100;-67
2022/12/25 11:50:40;;;;;;;11.95;6.93;;;9.60;99.90;;;;;;5013776;28;20080;-67
2022/12/25 11:53:19;;;;;;;12.05;7.60;;;9.60;99.90;;;;;;5019549;28;20058;-67
2022/12/25 11:55:53;;;;;;;13.70;8.35;;;9.60;99.90;;;;;;5020267;28;20384;-66
2022/12/25 11:58:43;;;;;;;16.52;7.60;;;9.50;99.90;;;;;;5023933;28;20053;-67
2022/12/25 12:01:32;;;;;;;14.95;7.72;;;9.60;99.90;;;;;;5019362;28;20492;-66
2022/12/25 12:04:01;;;;;;;16.02;8.50;;;9.70;99.90;;;;;;5024379;28;20505;-67
2022/12/25 12:06:39;;;;;;;13.65;7.85;;;9.60;99.90;;;;;;5017226;28;20045;-66
2022/12/25 12:09:27;;;;;;;16.30;7.97;;;9.60;99.90;;;;;;5021293;28;20406;-67
2022/12/25 12:12:01;;;;;;;13.45;7.65;;;9.60;99.90;;;;;;5018548;28;20466;-67
2022/12/25 12:14:54;;;;;;;18.17;9.48;;;9.60;99.90;;;;;;5020231;28;20194;-67
2022/12/25 12:17:20;;;;;;;16.20;8.57;;;9.50;99.90;;;;;;5015700;28;20081;-66
2022/12/25 12:19:46;;;;;;;18.10;9.02;;;9.50;99.90;;;;;;5018038;28;20092;-67
2022/12/25 12:22:22;;;;;;;17.27;8.65;;;9.50;99.90;;;;;;5019535;28;20463;-67
2022/12/25 12:25:03;;;;;;;19.85;9.40;;;9.60;99.90;;;;;;5017425;28;20042;-66
2022/12/25 12:27:39;;;;;;;16.42;9.07;;;9.50;99.90;;;;;;5017309;28;20072;-67
2022/12/25 12:30:20;;;;;;;15.30;9.45;;;9.50;99.90;;;;;;5021217;28;20053;-66
2022/12/25 12:32:52;;;;;;;16.20;9.80;;;9.40;99.90;;;;;;5022199;28;20048;-67
2022/12/25 12:35:30;;;;;;;16.65;10.40;;;9.40;99.90;;;;;;5019539;28;20056;-66
2022/12/25 12:38:01;;;;;;;19.95;10.02;;;9.50;99.90;;;;;;5019287;28;20034;-66
2022/12/25 12:40:38;;;;;;;19.35;9.95;;;9.50;99.90;;;;;;5019388;28;20053;-66
2022/12/25 12:43:06;;;;;;;19.27;9.35;;;9.50;99.90;;;;;;5036214;28;20034;-66
2022/12/25 12:45:36;;;;;;;17.60;9.15;;;9.40;99.90;;;;;;5018178;28;20402;-66
2022/12/25 12:48:14;;;;;;;18.85;10.52;;;9.50;99.90;;;;;;5022825;28;20034;-66
2022/12/25 12:50:41;;;;;;;21.38;10.75;;;9.50;99.90;;;;;;5018102;28;20037;-67
2022/12/25 12:53:25;;;;;;;23.02;10.23;;;9.50;99.90;;;;;;5018692;28;20107;-67
2022/12/25 12:55:51;;;;;;;23.38;10.13;;;9.50;99.90;;;;;;5015372;28;20513;-67
2022/12/25 12:58:48;;;;;;;16.25;9.32;;;9.50;99.90;;;;;;5018656;28;20042;-67
2022/12/25 13:01:34;;;;;;;17.60;9.38;;;9.50;99.90;;;;;;5018823;28;20591;-67
2022/12/25 13:04:24;;;;;;;21.10;9.68;;;9.40;99.90;;;;;;5015677;28;20077;-67
2022/12/25 13:07:21;;;;;;;16.42;8.95;;;9.50;99.90;;;;;;5020162;28;20188;-67
2022/12/25 13:10:19;;;;;;;18.10;9.75;;;9.50;99.90;;;;;;5018962;28;20068;-67
2022/12/25 13:12:49;;;;;;;20.50;10.57;;;9.40;99.90;;;;;;5010904;28;20526;-67
2022/12/25 13:15:15;;;;;;;20.15;11.15;;;9.40;99.90;;;;;;5014969;28;20306;-67
2022/12/25 13:17:45;;;;;;;16.58;10.05;;;9.40;99.90;;;;;;5017255;28;20057;-67
2022/12/25 13:20:27;;;;;;;18.70;9.75;;;9.40;99.90;;;;;;5019600;28;20042;-67
2022/12/25 13:22:53;;;;;;;21.88;10.05;;;9.40;99.90;;;;;;5016119;28;20038;-67
2022/12/25 13:25:21;;;;;;;21.13;9.95;;;9.40;99.90;;;;;;5017909;28;20045;-67
2022/12/25 13:27:55;;;;;;;22.77;11.25;;;9.40;99.90;;;;;;5017394;28;20052;-67
2022/12/25 13:30:21;;;;;;;21.50;9.63;;;9.40;99.90;;;;;;5022309;28;20469;-67
2022/12/25 13:32:48;;;;;;;21.98;9.98;;;9.40;99.90;;;;;;5019882;28;20049;-67
2022/12/25 13:35:15;;;;;;;19.38;9.75;;;9.40;99.90;;;;;;5017388;28;20045;-67
2022/12/25 13:37:42;;;;;;;19.88;10.07;;;9.40;99.90;;;;;;5022047;28;20493;-67
2022/12/25 13:40:22;;;;;;;16.77;10.77;;;9.30;99.90;;;;;;5023404;28;20054;-67
2022/12/25 13:42:49;;;;;;;22.95;11.15;;;9.40;99.90;;;;;;5023414;28;20371;-67
2022/12/25 13:45:20;;;;;;;26.02;11.40;;;9.40;99.90;;;;;;5018795;28;20168;-67
2022/12/25 13:47:46;;;;;;;18.92;10.88;;;9.30;99.90;;;;;;5019692;28;20044;-67
2022/12/25 13:50:34;;;;;;;25.58;12.80;;;9.30;99.90;;;;;;5023395;28;20046;-68
2022/12/25 13:53:15;;;;;;;21.15;11.85;;;9.30;99.90;;;;;;5020888;28;20532;-68
2022/12/25 13:55:46;;;;;;;22.10;11.95;;;9.30;99.90;;;;;;5023752;28;20394;-68
2022/12/25 13:58:26;;;;;;;24.83;13.98;;;9.30;99.90;;;;;;5026149;28;20045;-68
2022/12/25 14:00:55;;;;;;;30.02;13.50;;;9.20;99.90;;;;;;5024667;28;20054;-68
2022/12/25 14:03:25;;;;;;;29.63;14.90;;;9.30;99.90;;;;;;5023344;28;20037;-68
2022/12/25 14:06:00;;;;;;;30.85;15.80;;;9.20;99.90;;;;;;5037583;28;20030;-68
2022/12/25 14:08:27;;;;;;;;;;;9.20;99.90;;;;;;5024036;28;20095;-68
2022/12/25 14:10:54;;;;;;;26.40;14.25;;;9.20;99.90;;;;;;5020563;28;19917;-68
2022/12/25 14:13:24;;;;;;;22.05;15.68;;;9.10;99.90;;;;;;5026092;28;20038;-68
2022/12/25 14:15:52;;;;;;;25.83;15.38;;;9.20;99.90;;;;;;5020330;28;20046;-69
2022/12/25 14:18:20;;;;;;;28.73;16.13;;;9.10;99.90;;;;;;5023181;28;20062;-68
2022/12/25 14:21:10;;;;;;;25.38;16.15;;;9.10;99.90;;;;;;5021869;28;20049;-68
2022/12/25 14:23:43;;;;;;;24.40;15.90;;;9.10;99.90;;;;;;5025370;28;20049;-68
2022/12/25 14:26:19;;;;;;;29.48;17.23;;;9.10;99.90;;;;;;5024304;28;20076;-69
2022/12/25 14:28:47;;;;;;;24.83;16.50;;;9.10;99.90;;;;;;5021575;28;20049;-68
2022/12/25 14:31:13;;;;;;;33.80;16.85;;;9.10;99.90;;;;;;5023242;28;20379;-68
2022/12/25 14:33:41;;;;;;;29.88;17.98;;;9.10;99.90;;;;;;5022790;28;20045;-69
2022/12/25 14:36:09;;;;;;;33.95;18.15;;;9.00;99.90;;;;;;5023858;28;20069;-69
2022/12/25 14:38:35;;;;;;;24.13;17.58;;;9.00;99.90;;;;;;5024295;28;20037;-69
2022/12/25 14:41:06;;;;;;;25.95;18.77;;;9.00;99.90;;;;;;5024179;28;20445;-67
2022/12/25 14:43:33;;;;;;;28.92;18.33;;;9.10;99.90;;;;;;5028651;28;20092;-68